logo tempoitalia

Diretta Meteo Tulcea, Romanialunedì 31 agosto ore 08:00

Mappa
Sereno 18 °C Sereno 24 Ore: T.min 12 T.max 30
Ponente Nord Km/h 0 Punto di rugiada: 13 °C Umidità: 72% Visibilità: 10 Km
Il sole sorge alle: 06:25 Il sole tramonta alle: 19:44
31 Agosto 2026 08:00 tempo osservato: Sereno Sereno 18 72 1018 vento: Nord N 0
31 Agosto 2026 07:30 tempo osservato: Sereno Sereno 15 82 1018 vento: Nord N 3.7
31 Agosto 2026 07:00 tempo osservato: Sereno Sereno 14 82 1018 vento: Nord N 0
31 Agosto 2026 06:30 tempo osservato: Sereno Sereno 13 81 1018 vento: Nord N 0
31 Agosto 2026 06:00 tempo osservato: Sereno Sereno 12 87 1018 vento: Nord E/NE 7.4
31 Agosto 2026 05:30 tempo osservato: Sereno Sereno 12 87 1018 vento: Nord N 5.5
31 Agosto 2026 05:00 tempo osservato: Sereno Sereno 14 82 1018 vento: Nord N 3.7
31 Agosto 2026 04:30 tempo osservato: Sereno Sereno 14 82 1018 vento: Nord N 3.7
31 Agosto 2026 04:00 tempo osservato: Sereno Sereno 14 82 1018 vento: Nord N 3.7
31 Agosto 2026 03:30 tempo osservato: Sereno Sereno 14 76 1018 vento: Nord N 3.7
31 Agosto 2026 03:00 tempo osservato: Sereno Sereno 16 72 1018 vento: Nord N 0
31 Agosto 2026 02:30 tempo osservato: Sereno Sereno 17 67 1018 vento: Nord N 3.7
31 Agosto 2026 02:00 tempo osservato: Sereno Sereno 17 67 1018 vento: Nord N 0
31 Agosto 2026 01:30 tempo osservato: Sereno Sereno 15 72 1018 vento: Nord N 0
31 Agosto 2026 01:00 tempo osservato: Sereno Sereno 15 67 1018 vento: Nord N 3.7
31 Agosto 2026 00:30 tempo osservato: Sereno Sereno 19 59 1018 vento: Nord N 3.7
31 Agosto 2026 00:00 tempo osservato: Sereno Sereno 19 59 1018 vento: Nord N 5.5
30 Agosto 2026 23:30 tempo osservato: Sereno Sereno 19 59 1018 vento: Nord N 1.8
30 Agosto 2026 23:00 tempo osservato: Sereno Sereno 21 52 1018 vento: Nord N 0
30 Agosto 2026 22:30 tempo osservato: Sereno Sereno 21 49 1018 vento: Nord N 3.7
30 Agosto 2026 22:00 tempo osservato: Sereno Sereno 21 49 1018 vento: Nord N 3.7
30 Agosto 2026 21:30 tempo osservato: Sereno Sereno 21 49 1018 vento: Nord E 9.3
30 Agosto 2026 21:00 tempo osservato: Sereno Sereno 23 49 1018 vento: Nord N 5.5
30 Agosto 2026 20:30 tempo osservato: Sereno Sereno 24 47 1018 vento: Nord N 5.5
30 Agosto 2026 20:00 tempo osservato: Sereno Sereno 24 47 1017 vento: Nord S/SE 7.4
30 Agosto 2026 19:30 tempo osservato: Sereno Sereno 25 44 1017 vento: Nord E/SE 7.4
30 Agosto 2026 19:00 tempo osservato: Sereno Sereno 27 34 1017 vento: Nord E/SE 18.5
30 Agosto 2026 18:30 tempo osservato: Sereno Sereno 28 37 1017 vento: Nord E/SE 18.5
30 Agosto 2026 18:00 tempo osservato: Sereno Sereno 29 35 1017 vento: Nord E/SE 18.5
30 Agosto 2026 17:30 tempo osservato: Sereno Sereno 29 35 1017 vento: Nord E/SE 16.7
30 Agosto 2026 17:00 tempo osservato: Sereno Sereno 29 37 1017 vento: Nord SE 20.3
30 Agosto 2026 16:30 tempo osservato: Sereno Sereno 29 35 1017 vento: Nord SE 16.7
30 Agosto 2026 16:00 tempo osservato: Sereno Sereno 30 33 1017 vento: Nord E/SE 18.5
30 Agosto 2026 15:30 tempo osservato: Sereno Sereno 29 39 1017 vento: Nord E/SE 16.7
30 Agosto 2026 15:00 tempo osservato: Sereno Sereno 29 39 1017 vento: Nord E 20.3
30 Agosto 2026 14:30 tempo osservato: Sereno Sereno 30 35 1017 vento: Nord E/SE 14.8
30 Agosto 2026 14:00 tempo osservato: Sereno Sereno 29 42 1017 vento: Nord E 11.1
30 Agosto 2026 13:30 tempo osservato: Sereno Sereno 30 40 1017 vento: Nord E 13
30 Agosto 2026 13:00 tempo osservato: Sereno Sereno 30 37 1017 vento: Nord N 11.1
30 Agosto 2026 12:30 tempo osservato: Sereno Sereno 28 42 1018 vento: Nord E/NE 9.3
30 Agosto 2026 12:00 tempo osservato: Sereno Sereno 28 39 1018 vento: Nord NE 11.1
30 Agosto 2026 11:30 tempo osservato: Sereno Sereno 28 42 1018 vento: Nord E/NE 13
30 Agosto 2026 11:00 tempo osservato: Sereno Sereno 27 50 1018 vento: Nord E/NE 14.8
30 Agosto 2026 10:30 tempo osservato: Sereno Sereno 25 57 1018 vento: Nord NE 16.7
30 Agosto 2026 10:00 tempo osservato: Sereno Sereno 25 53 1018 vento: Nord N/NE 13
30 Agosto 2026 09:30 tempo osservato: Sereno Sereno 24 60 1018 vento: Nord N/NE 14.8
30 Agosto 2026 09:00 tempo osservato: Sereno Sereno 24 64 1017 vento: Nord N 13